createdAt,value
2022-10-29T00:01:06.790Z,99.27
2022-10-29T00:03:33.234Z,100.00
2022-10-29T00:06:02.506Z,99.23
2022-10-29T00:08:30.472Z,97.30
2022-10-29T00:11:06.268Z,97.69
2022-10-29T00:13:32.942Z,98.68
2022-10-29T00:15:59.409Z,99.72
2022-10-29T00:18:26.818Z,99.42
2022-10-29T00:21:00.967Z,98.31
2022-10-29T00:23:27.372Z,98.79
2022-10-29T00:25:59.608Z,98.47
2022-10-29T00:28:26.587Z,97.78
2022-10-29T00:30:52.981Z,97.64
2022-10-29T00:36:12.622Z,98.12
2022-10-29T00:38:39.085Z,97.38
2022-10-29T00:41:07.113Z,98.20
2022-10-29T00:43:36.132Z,96.60
2022-10-29T00:46:12.749Z,98.52
2022-10-29T00:48:48.664Z,98.37
2022-10-29T00:51:16.570Z,98.19
2022-10-29T00:53:48.309Z,98.98
2022-10-29T00:56:16.291Z,99.45
2022-10-29T00:58:45.887Z,97.96
2022-10-29T01:01:12.708Z,99.10
2022-10-29T01:03:39.342Z,99.64
2022-10-29T01:06:06.135Z,99.62
2022-10-29T01:08:32.560Z,99.60
2022-10-29T01:10:59.021Z,99.18
2022-10-29T01:13:47.019Z,99.15
2022-10-29T01:16:24.698Z,98.27
2022-10-29T01:19:09.350Z,98.11
2022-10-29T01:21:40.242Z,98.06
2022-10-29T01:24:20.040Z,98.47
2022-10-29T01:27:17.344Z,99.36
2022-10-29T01:30:05.464Z,99.15
2022-10-29T01:32:57.479Z,97.98
2022-10-29T01:35:51.638Z,98.60
2022-10-29T01:38:34.648Z,98.80
2022-10-29T01:41:23.717Z,98.38
2022-10-29T01:43:57.006Z,97.48
2022-10-29T01:46:52.948Z,98.92
2022-10-29T01:49:25.465Z,99.47
2022-10-29T01:51:54.022Z,99.66
2022-10-29T01:54:20.996Z,100.00
2022-10-29T01:56:55.247Z,99.89
2022-10-29T01:59:51.374Z,100.00
2022-10-29T02:02:33.885Z,100.00
2022-10-29T02:05:33.016Z,100.00
2022-10-29T02:08:08.561Z,100.00
2022-10-29T02:10:44.021Z,100.00
2022-10-29T02:13:14.094Z,100.00
2022-10-29T02:15:51.276Z,100.00
2022-10-29T02:18:17.940Z,100.00
2022-10-29T02:20:45.973Z,100.00
2022-10-29T02:23:13.322Z,99.87
2022-10-29T02:25:39.757Z,100.00
2022-10-29T02:28:06.408Z,100.00
2022-10-29T02:30:36.829Z,99.08
2022-10-29T02:33:03.282Z,99.25
2022-10-29T02:35:29.671Z,100.00
2022-10-29T02:37:56.042Z,98.34
2022-10-29T02:40:22.420Z,98.69
2022-10-29T02:42:48.970Z,97.75
2022-10-29T02:45:15.420Z,98.29
2022-10-29T02:47:41.813Z,98.45
2022-10-29T02:50:08.869Z,99.17
2022-10-29T02:52:35.225Z,99.41
2022-10-29T02:55:01.612Z,97.56
2022-10-29T02:57:27.988Z,98.16
2022-10-29T02:59:54.434Z,97.20
2022-10-29T03:02:20.916Z,96.38
2022-10-29T03:04:47.352Z,95.96
2022-10-29T03:07:13.788Z,97.11
2022-10-29T03:09:40.238Z,95.82
2022-10-29T03:12:07.029Z,95.93
2022-10-29T03:14:33.516Z,95.71
2022-10-29T03:16:59.958Z,95.93
2022-10-29T03:19:26.335Z,95.81
2022-10-29T03:21:52.704Z,95.46
2022-10-29T03:24:19.085Z,95.70
2022-10-29T03:26:45.624Z,95.59
2022-10-29T03:29:12.004Z,95.28
2022-10-29T03:31:38.439Z,96.31
2022-10-29T03:34:04.889Z,96.86
2022-10-29T03:36:31.327Z,96.19
2022-10-29T03:38:57.699Z,96.05
2022-10-29T03:41:24.152Z,96.73
2022-10-29T03:43:50.911Z,96.76
2022-10-29T03:46:17.321Z,97.70
2022-10-29T03:48:43.697Z,97.58
2022-10-29T03:51:10.454Z,96.32
2022-10-29T03:53:38.349Z,97.02
2022-10-29T03:56:05.373Z,96.91
2022-10-29T03:58:31.792Z,95.81
2022-10-29T04:01:03.482Z,96.55
2022-10-29T04:03:31.839Z,98.11
2022-10-29T04:06:03.556Z,97.20
2022-10-29T04:08:29.991Z,97.53
2022-10-29T04:10:56.358Z,97.45
2022-10-29T04:13:22.785Z,97.22
2022-10-29T04:15:52.936Z,98.43
2022-10-29T04:18:19.305Z,98.76
2022-10-29T04:21:59.031Z,99.36
2022-10-29T04:29:07.087Z,99.63
2022-10-29T04:31:33.464Z,98.85
2022-10-29T04:33:59.882Z,98.39
2022-10-29T04:36:26.283Z,98.68
2022-10-29T04:38:52.722Z,100.00
2022-10-29T04:41:19.103Z,99.80
2022-10-29T04:43:58.947Z,100.00
2022-10-29T04:46:25.450Z,100.00
2022-10-29T04:48:54.549Z,100.00
2022-10-29T04:51:26.285Z,100.00
2022-10-29T04:53:52.798Z,100.00
2022-10-29T04:56:25.217Z,100.00
2022-10-29T04:58:52.674Z,100.00
2022-10-29T05:01:30.471Z,99.81
2022-10-29T05:03:59.865Z,99.08
2022-10-29T05:06:26.719Z,100.00
2022-10-29T05:08:53.123Z,100.00
2022-10-29T05:11:19.566Z,100.00
2022-10-29T05:13:46.453Z,99.70
2022-10-29T05:16:18.116Z,99.32
2022-10-29T05:18:44.547Z,99.30
2022-10-29T05:21:10.919Z,97.90
2022-10-29T05:23:37.511Z,97.54
2022-10-29T05:26:04.044Z,96.93
2022-10-29T05:28:30.553Z,96.64
2022-10-29T05:31:00.870Z,97.50
2022-10-29T05:33:27.273Z,100.00
2022-10-29T05:35:58.721Z,100.00
2022-10-29T05:38:25.180Z,99.91
2022-10-29T05:40:51.565Z,100.00
2022-10-29T05:43:24.240Z,99.71
2022-10-29T05:45:50.778Z,99.33
2022-10-29T05:48:18.350Z,99.92
2022-10-29T05:50:44.825Z,100.00
2022-10-29T05:53:13.577Z,100.00
2022-10-29T05:55:40.980Z,100.00
2022-10-29T05:58:13.191Z,100.00
2022-10-29T06:00:42.681Z,99.70
2022-10-29T06:03:31.168Z,99.01
2022-10-29T06:05:57.577Z,99.90
2022-10-29T06:08:24.028Z,99.35
2022-10-29T06:10:50.497Z,99.51
2022-10-29T06:13:19.054Z,98.65
2022-10-29T06:15:46.797Z,99.61
2022-10-29T06:18:13.587Z,99.36
2022-10-29T06:20:40.123Z,99.02
2022-10-29T06:23:06.875Z,96.61
2022-10-29T06:25:33.297Z,98.17
2022-10-29T06:28:05.324Z,98.14
2022-10-29T06:30:34.190Z,97.47
2022-10-29T06:33:09.832Z,97.69
2022-10-29T06:35:36.357Z,98.48
2022-10-29T06:38:07.794Z,96.78
2022-10-29T06:40:38.404Z,98.61
2022-10-29T06:43:06.864Z,98.45
2022-10-29T06:45:34.277Z,98.73
2022-10-29T06:48:01.343Z,99.31
2022-10-29T06:50:28.489Z,99.04
2022-10-29T06:52:55.943Z,98.94
2022-10-29T06:55:22.595Z,99.00
2022-10-29T06:57:56.484Z,97.92
2022-10-29T07:00:22.856Z,97.64
2022-10-29T07:02:59.520Z,97.15
2022-10-29T07:05:26.602Z,97.77
2022-10-29T07:08:00.823Z,97.54
2022-10-29T07:10:29.780Z,97.59
2022-10-29T07:12:56.382Z,97.69
2022-10-29T07:15:25.783Z,97.14
2022-10-29T07:18:05.008Z,97.13
2022-10-29T07:20:34.060Z,96.93
2022-10-29T07:23:01.388Z,96.90
2022-10-29T07:25:29.236Z,96.64
2022-10-29T07:28:02.202Z,96.41
2022-10-29T07:30:28.869Z,95.88
2022-10-29T07:32:55.279Z,95.80
2022-10-29T07:35:21.705Z,95.84
2022-10-29T07:37:48.129Z,95.64
2022-10-29T07:40:14.577Z,95.68
2022-10-29T07:42:41.020Z,95.08
2022-10-29T07:45:07.995Z,95.33
2022-10-29T07:47:35.562Z,94.71
2022-10-29T07:50:01.995Z,94.13
2022-10-29T07:52:28.426Z,93.54
2022-10-29T07:54:54.809Z,93.08
2022-10-29T07:57:22.392Z,93.04
2022-10-29T07:59:50.180Z,92.78
2022-10-29T08:02:16.690Z,91.18
2022-10-29T08:04:43.144Z,91.18
2022-10-29T08:07:09.569Z,90.70
2022-10-29T08:09:35.984Z,90.44
2022-10-29T08:12:04.959Z,89.43
2022-10-29T08:14:31.391Z,88.88
2022-10-29T08:16:57.905Z,89.70
2022-10-29T08:19:24.686Z,89.22
2022-10-29T08:21:51.069Z,88.84
2022-10-29T08:24:17.520Z,88.52
2022-10-29T08:26:44.060Z,88.08
2022-10-29T08:29:10.484Z,87.95
2022-10-29T08:31:36.891Z,86.94
2022-10-29T08:34:07.149Z,85.70
2022-10-29T08:36:36.490Z,85.64
2022-10-29T08:39:02.938Z,85.04
2022-10-29T08:41:45.074Z,84.11
2022-10-29T08:44:40.717Z,80.59
2022-10-29T08:47:20.626Z,81.90
2022-10-29T08:49:50.065Z,80.60
2022-10-29T08:52:24.754Z,80.32
2022-10-29T08:55:13.674Z,78.83
2022-10-29T08:57:49.137Z,79.65
2022-10-29T09:00:18.861Z,79.91
2022-10-29T09:02:45.348Z,79.92
2022-10-29T09:05:17.509Z,80.49
2022-10-29T09:07:55.238Z,79.52
2022-10-29T09:10:37.439Z,77.86
2022-10-29T09:13:25.093Z,77.72
2022-10-29T09:16:21.259Z,76.03
2022-10-29T09:19:08.439Z,75.43
2022-10-29T09:21:56.868Z,75.68
2022-10-29T09:24:35.079Z,75.90
2022-10-29T09:27:29.543Z,75.67
2022-10-29T09:29:58.933Z,75.77
2022-10-29T09:32:39.168Z,75.32
2022-10-29T09:35:16.993Z,75.44
2022-10-29T09:37:54.809Z,74.00
2022-10-29T09:40:40.288Z,73.59
2022-10-29T09:43:12.588Z,74.02
2022-10-29T09:45:50.505Z,71.12
2022-10-29T09:48:22.472Z,69.92
2022-10-29T09:51:19.079Z,71.92
2022-10-29T09:53:45.875Z,72.57
2022-10-29T09:56:12.284Z,72.33
2022-10-29T09:58:44.599Z,72.11
2022-10-29T10:01:11.466Z,72.48
2022-10-29T10:03:48.474Z,68.09
2022-10-29T10:06:16.834Z,67.02
2022-10-29T10:09:04.836Z,65.86
2022-10-29T10:11:35.279Z,64.38
2022-10-29T10:14:09.498Z,64.30
2022-10-29T10:16:36.046Z,63.60
2022-10-29T10:19:02.810Z,64.01
2022-10-29T10:21:33.673Z,64.33
2022-10-29T10:24:00.805Z,64.81
2022-10-29T10:26:43.033Z,65.59
2022-10-29T10:29:21.156Z,66.41
2022-10-29T10:32:10.748Z,66.11
2022-10-29T10:34:39.245Z,64.84
2022-10-29T10:37:18.849Z,64.64
2022-10-29T10:39:58.298Z,62.13
2022-10-29T10:42:36.951Z,63.77
2022-10-29T10:45:14.402Z,64.42
2022-10-29T10:47:45.652Z,63.83
2022-10-29T10:50:21.086Z,61.30
2022-10-29T10:52:47.824Z,62.21
2022-10-29T10:55:25.498Z,63.08
2022-10-29T10:57:56.017Z,62.72
2022-10-29T11:00:23.410Z,63.56
2022-10-29T11:03:08.233Z,63.22
2022-10-29T11:05:43.733Z,63.84
2022-10-29T11:08:19.120Z,63.72
2022-10-29T11:10:53.561Z,61.07
2022-10-29T11:13:23.228Z,60.77
2022-10-29T11:16:04.492Z,59.02
2022-10-29T11:18:37.975Z,57.83
2022-10-29T11:21:42.623Z,58.74
2022-10-29T11:24:14.160Z,58.46
2022-10-29T11:27:02.962Z,56.27
2022-10-29T11:29:48.950Z,54.86
2022-10-29T11:32:25.624Z,55.59
2022-10-29T11:35:16.606Z,55.91
2022-10-29T11:37:47.368Z,57.13
2022-10-29T11:40:19.884Z,56.89
2022-10-29T11:42:46.305Z,56.98
2022-10-29T11:45:17.379Z,55.44
2022-10-29T11:47:55.608Z,54.18
2022-10-29T11:50:32.190Z,55.34
2022-10-29T11:53:19.809Z,55.50
2022-10-29T11:56:16.538Z,55.92
2022-10-29T11:58:53.580Z,55.89
2022-10-29T12:01:22.981Z,55.70
2022-10-29T12:03:49.429Z,55.28
2022-10-29T12:06:41.004Z,54.58
2022-10-29T12:09:37.815Z,53.21
2022-10-29T12:12:23.443Z,52.21
2022-10-29T12:14:59.579Z,50.76
2022-10-29T12:17:38.025Z,49.58
2022-10-29T12:20:16.983Z,47.70
2022-10-29T12:23:25.312Z,49.50
2022-10-29T12:26:02.193Z,49.46
2022-10-29T12:28:47.802Z,49.37
2022-10-29T12:31:28.922Z,48.99
2022-10-29T12:34:23.847Z,49.36
2022-10-29T12:37:10.158Z,48.59
2022-10-29T12:39:43.732Z,48.09
2022-10-29T12:42:19.242Z,47.90
2022-10-29T12:45:07.012Z,51.92
2022-10-29T12:48:15.334Z,48.20
2022-10-29T12:51:04.057Z,48.65
2022-10-29T12:53:56.236Z,55.76
2022-10-29T12:56:23.912Z,56.10
2022-10-29T12:58:53.159Z,58.55
2022-10-29T13:01:38.215Z,59.06
2022-10-29T13:04:30.075Z,57.70
2022-10-29T13:07:01.269Z,58.65
2022-10-29T13:09:36.016Z,59.60
2022-10-29T13:12:10.477Z,58.36
2022-10-29T13:14:46.223Z,57.78
2022-10-29T13:17:30.034Z,58.08
2022-10-29T13:20:00.207Z,59.71
2022-10-29T13:22:54.202Z,58.70
2022-10-29T13:25:44.557Z,57.56
2022-10-29T13:28:11.122Z,57.17
2022-10-29T13:30:39.800Z,57.03
2022-10-29T13:33:28.063Z,56.26
2022-10-29T13:36:16.458Z,55.64
2022-10-29T13:39:05.975Z,56.11
2022-10-29T13:41:40.205Z,56.96
2022-10-29T13:44:14.202Z,56.25
2022-10-29T13:47:01.044Z,56.37
2022-10-29T13:49:36.758Z,57.22
2022-10-29T13:52:05.294Z,58.10
2022-10-29T13:54:54.971Z,55.94
2022-10-29T13:57:28.788Z,55.86
2022-10-29T14:00:01.579Z,57.73
2022-10-29T14:02:39.397Z,58.24
2022-10-29T14:05:23.866Z,59.71
2022-10-29T14:08:17.232Z,59.07
2022-10-29T14:10:43.609Z,63.53
2022-10-29T14:13:31.238Z,65.34
2022-10-29T14:16:02.847Z,66.75
2022-10-29T14:18:32.553Z,68.28
2022-10-29T14:21:01.383Z,70.33
2022-10-29T14:23:29.343Z,70.84
2022-10-29T14:26:03.829Z,72.34
2022-10-29T14:28:32.397Z,73.16
2022-10-29T14:31:15.233Z,74.38
2022-10-29T14:33:43.300Z,75.12
2022-10-29T14:36:15.524Z,74.74
2022-10-29T14:38:48.468Z,74.84
2022-10-29T14:41:16.561Z,75.29
2022-10-29T14:43:44.503Z,75.46
2022-10-29T14:46:23.907Z,75.95
2022-10-29T14:48:59.370Z,76.55
2022-10-29T14:51:26.897Z,77.49
2022-10-29T14:53:59.797Z,75.23
2022-10-29T14:56:33.415Z,75.96
2022-10-29T14:59:02.933Z,78.40
2022-10-29T15:01:29.598Z,80.66
2022-10-29T15:03:58.602Z,81.17
2022-10-29T15:06:28.166Z,78.71
2022-10-29T15:08:58.251Z,78.77
2022-10-29T15:11:40.323Z,79.55
2022-10-29T15:14:36.495Z,80.97
2022-10-29T15:17:10.220Z,83.81
2022-10-29T15:19:37.769Z,86.22
2022-10-29T15:22:11.649Z,86.16
2022-10-29T15:24:38.936Z,86.38
2022-10-29T15:27:06.424Z,87.38
2022-10-29T15:29:43.127Z,87.99
2022-10-29T15:32:14.868Z,87.59
2022-10-29T15:34:47.441Z,87.06
2022-10-29T15:37:19.924Z,87.84
2022-10-29T15:39:55.600Z,87.66
2022-10-29T15:42:24.858Z,87.10
2022-10-29T15:47:50.938Z,86.82
2022-10-29T15:50:23.197Z,86.82
2022-10-29T15:52:58.533Z,86.89
2022-10-29T15:55:33.631Z,86.66
2022-10-29T15:58:11.740Z,91.07
2022-10-29T16:00:40.249Z,91.96
2022-10-29T16:03:27.475Z,92.87
2022-10-29T16:05:56.253Z,94.83
2022-10-29T16:08:32.973Z,93.98
2022-10-29T16:11:01.821Z,95.08
2022-10-29T16:13:30.472Z,96.14
2022-10-29T16:15:56.937Z,95.69
2022-10-29T16:18:23.366Z,99.41
2022-10-29T16:20:53.583Z,98.53
2022-10-29T16:23:19.976Z,98.26
2022-10-29T16:25:46.377Z,95.80
2022-10-29T16:28:13.001Z,95.82
2022-10-29T16:33:11.856Z,94.30
2022-10-29T16:35:38.227Z,94.25
2022-10-29T16:38:04.613Z,94.19
2022-10-29T16:40:31.001Z,93.53
2022-10-29T16:42:57.914Z,93.36
2022-10-29T16:45:27.261Z,93.41
2022-10-29T16:47:54.376Z,92.87
2022-10-29T16:50:32.392Z,91.91
2022-10-29T16:53:07.789Z,91.77
2022-10-29T16:55:36.594Z,92.43
2022-10-29T16:58:03.577Z,92.72
2022-10-29T17:00:31.862Z,93.64
2022-10-29T17:03:04.960Z,94.32
2022-10-29T17:05:38.263Z,95.14
2022-10-29T17:08:05.100Z,93.89
2022-10-29T17:10:31.558Z,93.94
2022-10-29T17:12:59.360Z,94.27
2022-10-29T17:15:26.551Z,93.43
2022-10-29T17:17:53.294Z,92.33
2022-10-29T17:20:20.643Z,91.57
2022-10-29T17:22:47.077Z,93.24
2022-10-29T17:25:13.506Z,93.50
2022-10-29T17:27:43.473Z,93.33
2022-10-29T17:30:10.864Z,93.51
2022-10-29T17:32:37.676Z,93.32
2022-10-29T17:35:04.569Z,93.59
2022-10-29T17:37:31.237Z,93.85
2022-10-29T17:40:01.463Z,93.83
2022-10-29T17:42:31.418Z,93.14
2022-10-29T17:44:57.821Z,94.35
2022-10-29T17:47:24.311Z,94.84
2022-10-29T17:49:50.768Z,95.36
2022-10-29T17:52:19.434Z,95.58
2022-10-29T17:54:45.822Z,95.20
2022-10-29T17:57:12.218Z,95.00
2022-10-29T17:59:38.623Z,95.67
2022-10-29T18:02:05.169Z,95.50
2022-10-29T18:04:31.711Z,94.83
2022-10-29T18:06:59.094Z,94.44
2022-10-29T18:09:25.509Z,94.47
2022-10-29T18:11:51.930Z,94.80
2022-10-29T18:14:18.416Z,95.24
2022-10-29T18:16:45.775Z,95.52
2022-10-29T18:19:15.260Z,94.29
2022-10-29T18:21:41.717Z,95.32
2022-10-29T18:24:08.472Z,95.32
2022-10-29T18:26:36.760Z,95.90
2022-10-29T18:29:08.181Z,96.01
2022-10-29T18:31:35.178Z,95.77
2022-10-29T18:34:06.264Z,95.65
2022-10-29T18:36:35.558Z,94.54
2022-10-29T18:39:03.862Z,94.51
2022-10-29T18:41:30.717Z,95.11
2022-10-29T18:43:58.658Z,95.19
2022-10-29T18:46:25.615Z,95.60
2022-10-29T18:48:52.683Z,95.78
2022-10-29T18:51:20.962Z,96.07
2022-10-29T18:53:47.379Z,96.05
2022-10-29T18:56:18.815Z,96.96
2022-10-29T18:58:45.832Z,96.42
2022-10-29T19:01:18.728Z,96.59
2022-10-29T19:03:53.177Z,97.05
2022-10-29T19:06:20.784Z,96.74
2022-10-29T19:08:47.928Z,96.80
2022-10-29T19:11:16.816Z,96.69
2022-10-29T19:13:43.258Z,96.90
2022-10-29T19:16:12.395Z,97.24
2022-10-29T19:18:40.729Z,97.51
2022-10-29T19:21:19.372Z,97.59
2022-10-29T19:23:46.572Z,97.73
2022-10-29T19:26:18.447Z,98.04
2022-10-29T19:28:46.454Z,97.72
2022-10-29T19:31:15.365Z,97.84
2022-10-29T19:33:47.513Z,98.41
2022-10-29T19:36:14.053Z,98.74
2022-10-29T19:38:40.455Z,98.61
2022-10-29T19:41:06.866Z,98.48
2022-10-29T19:43:33.631Z,98.64
2022-10-29T19:46:01.333Z,99.67
2022-10-29T19:48:27.735Z,99.06
2022-10-29T19:50:56.149Z,98.74
2022-10-29T19:53:24.032Z,99.13
2022-10-29T19:55:51.151Z,98.88
2022-10-29T19:58:18.627Z,98.89
2022-10-29T20:00:45.290Z,98.72
2022-10-29T20:03:12.895Z,98.14
2022-10-29T20:05:40.317Z,97.73
2022-10-29T20:08:11.355Z,97.68
2022-10-29T20:10:41.318Z,97.84
2022-10-29T20:13:07.778Z,98.17
2022-10-29T20:15:34.186Z,98.20
2022-10-29T20:18:00.829Z,98.27
2022-10-29T20:20:27.424Z,98.56
2022-10-29T20:22:53.932Z,99.30
2022-10-29T20:25:23.857Z,98.82
2022-10-29T20:27:50.715Z,99.01
2022-10-29T20:30:18.217Z,98.04
2022-10-29T20:32:44.683Z,97.87
2022-10-29T20:35:11.202Z,98.99
2022-10-29T20:37:37.570Z,97.71
2022-10-29T20:40:04.893Z,98.50
2022-10-29T20:42:31.311Z,97.89
2022-10-29T20:45:10.991Z,97.22
2022-10-29T20:47:37.380Z,98.71
2022-10-29T20:50:04.036Z,98.35
2022-10-29T20:52:30.445Z,98.77
2022-10-29T20:54:56.857Z,98.96
2022-10-29T20:57:29.491Z,99.29
2022-10-29T20:59:56.037Z,98.77
2022-10-29T21:02:22.548Z,98.65
2022-10-29T21:04:49.077Z,98.43
2022-10-29T21:07:15.515Z,97.71
2022-10-29T21:09:41.905Z,97.95
2022-10-29T21:12:08.340Z,97.79
2022-10-29T21:14:34.778Z,98.22
2022-10-29T21:17:01.195Z,97.65
2022-10-29T21:19:28.158Z,98.42
2022-10-29T21:21:54.569Z,98.74
2022-10-29T21:24:20.967Z,97.68
2022-10-29T21:26:47.371Z,98.21
2022-10-29T21:29:13.759Z,97.85
2022-10-29T21:31:40.159Z,97.26
2022-10-29T21:34:10.689Z,98.02
2022-10-29T21:36:37.069Z,97.83
2022-10-29T21:39:03.572Z,97.71
2022-10-29T21:41:29.974Z,98.10
2022-10-29T21:43:56.369Z,98.47
2022-10-29T21:46:22.759Z,98.78
2022-10-29T21:48:49.158Z,99.00
2022-10-29T21:51:17.110Z,99.07
2022-10-29T21:53:43.756Z,98.42
2022-10-29T21:56:12.780Z,99.08
2022-10-29T21:58:39.276Z,99.40
2022-10-29T22:01:07.409Z,99.33
2022-10-29T22:03:35.195Z,98.58
2022-10-29T22:06:06.997Z,98.26
2022-10-29T22:08:34.554Z,98.62
2022-10-29T22:11:01.568Z,98.24
2022-10-29T22:13:32.032Z,97.87
2022-10-29T22:15:58.737Z,98.08
2022-10-29T22:18:37.216Z,97.79
2022-10-29T22:21:08.134Z,98.17
2022-10-29T22:23:35.189Z,98.85
2022-10-29T22:26:01.721Z,98.84
2022-10-29T22:28:28.213Z,98.93
2022-10-29T22:31:02.005Z,98.58
2022-10-29T22:33:29.138Z,98.74
2022-10-29T22:35:55.727Z,98.95
2022-10-29T22:38:22.182Z,98.87
2022-10-29T22:40:48.645Z,97.45
2022-10-29T22:43:15.254Z,97.92
2022-10-29T22:45:45.472Z,98.29
2022-10-29T22:48:12.351Z,98.69
2022-10-29T22:50:38.775Z,98.40
2022-10-29T22:53:05.163Z,98.62
2022-10-29T22:55:31.639Z,98.30
2022-10-29T22:57:58.019Z,99.61
2022-10-29T23:00:24.462Z,100.00
2022-10-29T23:02:50.824Z,99.87
2022-10-29T23:05:17.238Z,99.13
2022-10-29T23:07:43.628Z,100.00
2022-10-29T23:10:10.053Z,100.00
2022-10-29T23:12:38.207Z,100.00
2022-10-29T23:15:05.357Z,100.00
2022-10-29T23:17:31.742Z,100.00
2022-10-29T23:19:58.737Z,100.00
2022-10-29T23:22:27.530Z,99.78
2022-10-29T23:24:54.239Z,100.00
2022-10-29T23:27:20.642Z,100.00
2022-10-29T23:29:47.064Z,100.00
2022-10-29T23:32:14.429Z,100.00
2022-10-29T23:34:40.861Z,100.00
2022-10-29T23:37:09.928Z,100.00
2022-10-29T23:39:36.890Z,100.00
2022-10-29T23:42:03.431Z,99.98
2022-10-29T23:44:29.804Z,99.57
2022-10-29T23:46:56.172Z,99.73
2022-10-29T23:49:22.561Z,99.72
2022-10-29T23:51:48.946Z,100.00
2022-10-29T23:54:15.333Z,100.00
2022-10-29T23:56:41.709Z,100.00
2022-10-29T23:59:08.095Z,100.00
